Time;durP1;ratioP1;P1;durP2;ratioP2;P2;SDS_P1;SDS_P2;PMS_P1;PMS_P2;Temp;Humidity;BMP_temperature;BMP_pressure;BME280_temperature;BME280_humidity;BME280_pressure;Samples;Min_cycle;Max_cycle;Signal;HPM_P1;HPM_P2
2021/05/15 00:03:03;;;;;;;;;;;10.70;99.90;;;;;;10454729;28;19924;-70
2021/05/15 00:08:04;;;;;;;;;;;10.50;99.90;;;;;;10481312;28;19938;-70
2021/05/15 00:13:05;;;;;;;;;;;10.70;99.90;;;;;;10450003;28;19928;-70
2021/05/15 00:18:06;;;;;;;;;;;10.80;99.90;;;;;;10450420;28;20304;-70
2021/05/15 00:23:06;;;;;;;;;;;10.80;99.90;;;;;;10448945;28;19917;-70
2021/05/15 00:28:07;;;;;;;;;;;10.50;99.90;;;;;;10448008;28;19913;-70
2021/05/15 00:33:07;;;;;;;;;;;10.50;99.90;;;;;;10455727;28;19928;-70
2021/05/15 00:38:08;;;;;;;;;;;10.70;99.90;;;;;;10464059;28;19913;-70
2021/05/15 00:43:09;;;;;;;;;;;10.80;99.90;;;;;;10447855;28;19924;-70
2021/05/15 00:48:10;;;;;;;;;;;10.80;99.90;;;;;;10448454;28;20028;-70
2021/05/15 00:53:10;;;;;;;;;;;10.40;99.90;;;;;;10446340;28;20413;-70
2021/05/15 00:58:12;;;;;;;;;;;10.30;99.90;;;;;;10448184;28;19917;-70
2021/05/15 01:03:12;;;;;;;;;;;10.20;99.90;;;;;;10447021;28;20333;-70
2021/05/15 01:08:13;;;;;;;;;;;9.90;99.90;;;;;;10446969;28;19956;-70
2021/05/15 01:13:13;;;;;;;;;;;9.90;99.90;;;;;;10446174;28;19982;-70
2021/05/15 01:18:14;;;;;;;;;;;10.00;99.90;;;;;;10447604;28;19912;-70
2021/05/15 01:23:15;;;;;;;;;;;10.20;99.90;;;;;;10446293;28;19992;-70
2021/05/15 01:28:15;;;;;;;;;;;10.00;99.90;;;;;;10447455;28;20608;-70
2021/05/15 01:33:16;;;;;;;;;;;10.00;99.90;;;;;;10445358;28;19947;-71
2021/05/15 01:38:16;;;;;;;;;;;9.90;99.90;;;;;;10446482;28;19920;-70
2021/05/15 01:43:18;;;;;;;;;;;9.70;99.90;;;;;;10445366;28;19967;-71
2021/05/15 01:48:19;;;;;;;;;;;9.50;99.90;;;;;;10446676;28;19918;-70
2021/05/15 01:53:19;;;;;;;;;;;9.40;99.90;;;;;;10445330;28;19920;-70
2021/05/15 01:58:20;;;;;;;;;;;9.50;99.90;;;;;;10446334;28;19913;-71
2021/05/15 02:03:21;;;;;;;;;;;9.40;99.90;;;;;;10448721;28;19916;-70
2021/05/15 02:08:22;;;;;;;;;;;9.40;99.90;;;;;;10452564;28;20284;-70
2021/05/15 02:13:25;;;;;;;;;;;9.50;99.90;;;;;;10450824;28;19927;-70
2021/05/15 02:18:27;;;;;;;;;;;9.60;99.90;;;;;;10457453;28;19975;-71
2021/05/15 02:23:27;;;;;;;;;;;9.60;99.90;;;;;;10451473;28;20015;-70
2021/05/15 02:28:28;;;;;;;;;;;9.50;99.90;;;;;;10452151;28;20074;-70
2021/05/15 02:33:28;;;;;;;;;;;9.40;99.90;;;;;;10450462;28;19925;-70
2021/05/15 02:38:29;;;;;;;;;;;9.30;99.90;;;;;;10451811;28;20012;-71
2021/05/15 02:43:29;;;;;;;;;;;9.40;99.90;;;;;;10457563;28;19919;-70
2021/05/15 02:48:30;;;;;;;;;;;9.40;99.90;;;;;;10480942;28;20234;-71
2021/05/15 02:53:31;;;;;;;;;;;9.30;99.90;;;;;;10452288;28;19935;-71
2021/05/15 02:58:31;;;;;;;;;;;9.40;99.90;;;;;;10450283;28;19916;-71
2021/05/15 03:03:32;;;;;;;;;;;9.50;99.90;;;;;;10448119;28;19963;-71
2021/05/15 03:08:32;;;;;;;;;;;9.50;99.90;;;;;;10447803;28;20430;-71
2021/05/15 03:13:33;;;;;;;;;;;9.50;99.90;;;;;;10444888;28;20000;-71
2021/05/15 03:18:33;;;;;;;;;;;9.60;99.90;;;;;;10445835;28;19917;-71
2021/05/15 03:23:34;;;;;;;;;;;9.60;99.90;;;;;;10445234;28;19987;-70
2021/05/15 03:28:35;;;;;;;;;;;9.70;99.90;;;;;;10444745;28;20743;-71
2021/05/15 03:33:35;;;;;;;;;;;9.60;99.90;;;;;;10451460;28;20312;-71
2021/05/15 03:38:36;;;;;;;;;;;9.70;99.90;;;;;;10452564;28;19912;-71
2021/05/15 03:43:36;;;;;;;;;;;9.90;99.90;;;;;;10452098;28;19965;-71
2021/05/15 03:48:37;;;;;;;;;;;9.90;99.90;;;;;;10452364;28;19924;-71
2021/05/15 03:53:38;;;;;;;;;;;9.70;99.90;;;;;;10452393;28;20055;-71
2021/05/15 03:58:38;;;;;;;;;;;9.70;99.90;;;;;;10451590;28;19916;-71
2021/05/15 04:03:39;;;;;;;;;;;9.80;99.90;;;;;;10451766;28;19927;-72
2021/05/15 04:08:39;;;;;;;;;;;9.90;99.90;;;;;;10451372;28;20420;-71
2021/05/15 04:18:47;;;;;;;;;;;10.00;99.90;;;;;;10451196;28;20023;-71
2021/05/15 04:23:48;;;;;;;;;;;9.90;99.90;;;;;;10451064;28;19920;-71
2021/05/15 04:28:48;;;;;;;;;;;9.90;99.90;;;;;;10450240;28;19924;-71
2021/05/15 04:33:49;;;;;;;;;;;9.90;99.90;;;;;;10449551;28;19943;-71
2021/05/15 04:38:52;;;;;;;;;;;10.00;99.90;;;;;;10450012;28;19912;-71
2021/05/15 04:43:53;;;;;;;;;;;10.10;99.90;;;;;;10449931;28;20015;-71
2021/05/15 04:48:53;;;;;;;;;;;10.30;99.90;;;;;;10449857;28;19925;-72
2021/05/15 04:53:54;;;;;;;;;;;10.50;99.90;;;;;;10449866;28;20070;-72
2021/05/15 04:58:55;;;;;;;;;;;10.50;99.90;;;;;;10449752;28;19919;-72
2021/05/15 05:03:55;;;;;;;;;;;10.60;99.90;;;;;;10423914;28;19913;-72
2021/05/15 05:08:56;;;;;;;;;;;10.80;99.90;;;;;;10435771;28;19919;-71
2021/05/15 05:13:57;;;;;;;;;;;11.10;99.90;;;;;;10449271;28;19920;-72
2021/05/15 05:18:57;;;;;;;;;;;11.20;99.90;;;;;;10447250;28;19927;-72
2021/05/15 05:23:58;;;;;;;;;;;11.80;99.90;;;;;;10447828;28;20295;-73
2021/05/15 05:28:59;;;;;;;;;;;12.80;99.90;;;;;;10448477;28;19921;-72
2021/05/15 05:34:00;;;;;;;;;;;12.40;99.90;;;;;;10448173;28;19921;-72
2021/05/15 05:39:01;;;;;;;;;;;12.20;99.90;;;;;;10447844;28;19936;-73
2021/05/15 05:44:02;;;;;;;;;;;11.80;99.90;;;;;;10447783;28;19917;-73
2021/05/15 05:49:03;;;;;;;;;;;11.40;99.90;;;;;;10447351;28;19921;-73
2021/05/15 05:54:04;;;;;;;;;;;11.30;99.90;;;;;;10447036;28;19924;-71
2021/05/15 05:59:04;;;;;;;;;;;11.40;99.90;;;;;;10446935;28;19913;-72
2021/05/15 06:04:05;;;;;;;;;;;11.50;99.90;;;;;;10447121;28;20332;-72
2021/05/15 06:09:06;;;;;;;;;;;11.90;99.90;;;;;;10446518;28;19913;-72
2021/05/15 06:14:06;;;;;;;;;;;12.10;99.90;;;;;;10446719;28;20015;-71
2021/05/15 06:19:07;;;;;;;;;;;12.20;99.90;;;;;;10446175;28;19912;-72
2021/05/15 06:24:08;;;;;;;;;;;12.00;99.90;;;;;;10446362;28;20016;-72
2021/05/15 06:29:08;;;;;;;;;;;12.10;99.90;;;;;;10446094;28;19912;-72
2021/05/15 06:34:09;;;;;;;;;;;12.00;99.90;;;;;;10445991;28;19928;-72
2021/05/15 06:39:09;;;;;;;;;;;12.20;99.90;;;;;;10444520;28;19935;-72
2021/05/15 06:44:10;;;;;;;;;;;12.90;99.90;;;;;;10445417;28;19912;-73
2021/05/15 06:49:11;;;;;;;;;;;13.60;99.90;;;;;;10445644;28;19925;-72
2021/05/15 06:54:11;;;;;;;;;;;13.50;99.90;;;;;;10445814;28;19935;-72
2021/05/15 06:59:12;;;;;;;;;;;13.60;99.90;;;;;;10442365;28;20329;-72
2021/05/15 07:04:13;;;;;;;;;;;13.90;99.90;;;;;;10439305;28;19944;-72
2021/05/15 07:09:14;;;;;;;;;;;13.90;99.90;;;;;;10452465;28;19916;-72
2021/05/15 07:14:15;;;;;;;;;;;14.10;99.90;;;;;;10448953;28;19929;-72
2021/05/15 07:19:16;;;;;;;;;;;14.00;99.90;;;;;;10450739;28;20395;-72
2021/05/15 07:24:16;;;;;;;;;;;13.80;99.90;;;;;;10451195;28;19923;-72
2021/05/15 07:29:17;;;;;;;;;;;14.10;99.90;;;;;;10449311;28;19982;-72
2021/05/15 07:34:18;;;;;;;;;;;14.80;99.90;;;;;;10450803;28;20015;-72
2021/05/15 07:39:18;;;;;;;;;;;16.50;99.90;;;;;;10439316;28;19917;-72
2021/05/15 07:44:21;;;;;;;;;;;17.30;98.40;;;;;;10450487;28;19925;-73
2021/05/15 07:49:22;;;;;;;;;;;16.20;97.20;;;;;;10450919;28;20418;-72
2021/05/15 07:54:23;;;;;;;;;;;16.00;97.10;;;;;;10452154;28;19927;-72
2021/05/15 07:59:24;;;;;;;;;;;15.80;97.30;;;;;;10438358;28;19917;-72
2021/05/15 08:04:24;;;;;;;;;;;15.60;96.20;;;;;;10449874;28;20295;-72
2021/05/15 08:09:25;;;;;;;;;;;15.90;94.50;;;;;;10448829;28;19939;-72
2021/05/15 08:14:26;;;;;;;;;;;15.50;95.10;;;;;;10443510;28;20425;-72
2021/05/15 08:19:26;;;;;;;;;;;15.80;94.80;;;;;;10443769;28;19916;-72
2021/05/15 08:24:27;;;;;;;;;;;16.20;93.90;;;;;;10448592;28;19956;-72
2021/05/15 08:29:29;;;;;;;;;;;16.20;92.00;;;;;;10449101;28;19916;-72
2021/05/15 08:34:29;;;;;;;;;;;16.30;90.40;;;;;;10447567;28;19964;-72
2021/05/15 08:39:30;;;;;;;;;;;16.70;90.00;;;;;;10449836;28;20011;-72
2021/05/15 08:44:32;;;;;;;;;;;17.30;88.00;;;;;;10459685;28;19917;-73
2021/05/15 08:49:33;;;;;;;;;;;17.20;84.90;;;;;;10448157;28;19943;-72
2021/05/15 08:54:33;;;;;;;;;;;17.20;84.90;;;;;;10448160;28;19939;-73
2021/05/15 08:59:34;;;;;;;;;;;16.90;83.70;;;;;;10434551;28;20127;-73
2021/05/15 09:04:35;;;;;;;;;;;16.50;84.50;;;;;;10437478;28;19958;-73
2021/05/15 09:09:37;;;;;;;;;;;16.00;86.50;;;;;;10447907;28;19960;-73
2021/05/15 09:14:38;;;;;;;;;;;15.70;86.60;;;;;;10446761;28;20572;-73
2021/05/15 09:19:50;;;;;;;;;;;15.80;88.80;;;;;;10447320;28;19936;-73
2021/05/15 09:24:52;;;;;;;;;;;16.40;87.90;;;;;;10446705;28;20019;-73
2021/05/15 09:29:53;;;;;;;;;;;17.10;82.50;;;;;;10444628;28;19932;-73
2021/05/15 09:34:55;;;;;;;;;;;17.10;80.60;;;;;;10445596;28;20552;-73
2021/05/15 09:40:09;;;;;;;;;;;16.60;82.40;;;;;;10410912;28;19964;-64
2021/05/15 09:45:19;;;;;;;;;;;16.10;85.40;;;;;;10438635;28;19932;-63
2021/05/15 09:50:22;;;;;;;;;;;15.60;86.70;;;;;;10444387;28;19967;-64
2021/05/15 09:55:32;;;;;;;;;;;15.30;94.60;;;;;;10563340;27;20568;-65
2021/05/15 10:00:47;;;;;;;;;;;14.90;97.60;;;;;;10516189;28;20012;-65
2021/05/15 10:06:01;;;;;;;;;;;14.30;99.90;;;;;;10528295;28;19928;-65
2021/05/15 10:11:05;;;;;;;;;;;14.30;99.90;;;;;;10543847;28;20019;-65
2021/05/15 10:16:07;;;;;;;;;;;14.80;99.90;;;;;;10538408;28;20029;-65
2021/05/15 10:21:12;;;;;;;;;;;15.20;99.90;;;;;;10535047;28;19971;-65
2021/05/15 10:26:22;;;;;;;;;;;15.80;99.90;;;;;;10524531;28;20011;-65
2021/05/15 10:31:34;;;;;;;;;;;16.50;99.90;;;;;;10542446;28;19925;-62
2021/05/15 10:36:46;;;;;;;;;;;15.50;99.90;;;;;;10536292;28;20383;-62
2021/05/15 10:41:48;;;;;;;;;;;13.90;99.90;;;;;;10538775;28;20396;-62
2021/05/15 10:46:51;;;;;;;;;;;14.10;99.90;;;;;;10538092;28;20336;-64
2021/05/15 10:51:56;;;;;;;;;;;15.30;99.90;;;;;;10514041;28;20559;-65
2021/05/15 10:57:03;;;;;;;;;;;16.00;99.90;;;;;;10533887;28;20020;-65
2021/05/15 11:02:07;;;;;;;;;;;16.60;99.90;;;;;;10483862;28;19924;-65
2021/05/15 11:07:11;;;;;;;;;;;16.40;99.90;;;;;;10482811;28;20016;-65
2021/05/15 11:12:41;;;;;;;;;;;16.70;99.90;;;;;;10492474;28;19932;-65
2021/05/15 11:17:43;;;;;;;;;;;17.00;99.90;;;;;;10505153;28;20007;-65
2021/05/15 11:22:49;;;;;;;;;;;17.00;99.90;;;;;;10531068;28;20014;-65
2021/05/15 11:27:52;;;;;;;;;;;17.10;99.90;;;;;;10496507;28;19978;-66
2021/05/15 11:32:54;;;;;;;;;;;17.40;98.80;;;;;;10490895;28;20015;-65
2021/05/15 11:38:02;;;;;;;;;;;17.40;97.20;;;;;;10504184;28;20011;-65
2021/05/15 11:43:05;;;;;;;;;;;17.80;94.50;;;;;;10493193;28;19924;-66
2021/05/15 11:48:09;;;;;;;;;;;17.40;89.80;;;;;;10516922;28;19934;-65
2021/05/15 11:53:11;;;;;;;;;;;17.80;92.70;;;;;;10514226;28;20007;-65
2021/05/15 11:58:14;;;;;;;;;;;17.50;87.00;;;;;;10530032;28;20373;-66
2021/05/15 12:03:20;;;;;;;;;;;17.10;88.90;;;;;;10494906;28;19939;-65
2021/05/15 12:08:22;;;;;;;;;;;17.00;89.60;;;;;;10508816;28;20008;-65
2021/05/15 12:13:24;;;;;;;;;;;17.40;86.90;;;;;;10516073;28;19924;-65
2021/05/15 12:18:26;;;;;;;;;;;17.20;79.30;;;;;;10495455;28;19933;-65
2021/05/15 12:23:28;;;;;;;;;;;17.70;83.40;;;;;;10502413;28;20012;-65
2021/05/15 12:28:36;;;;;;;;;;;18.10;79.80;;;;;;10519412;28;19934;-65
2021/05/15 12:33:42;;;;;;;;;;;18.50;71.50;;;;;;10511068;28;19976;-66
2021/05/15 12:38:46;;;;;;;;;;;18.30;73.10;;;;;;10499071;28;19928;-65
2021/05/15 12:43:59;;;;;;;;;;;18.30;66.60;;;;;;10505526;28;19924;-65
2021/05/15 12:49:02;;;;;;;;;;;17.90;64.50;;;;;;10500856;28;20035;-65
2021/05/15 12:54:10;;;;;;;;;;;17.30;68.40;;;;;;10499454;28;19939;-65
2021/05/15 12:59:12;;;;;;;;;;;17.00;71.30;;;;;;10493904;28;19978;-65
2021/05/15 13:04:24;;;;;;;;;;;15.20;95.10;;;;;;10507267;28;19924;-64
2021/05/15 13:09:26;;;;;;;;;;;13.70;99.90;;;;;;10486875;28;19930;-64
2021/05/15 13:14:28;;;;;;;;;;;13.10;99.90;;;;;;10504252;28;20031;-65
2021/05/15 13:19:30;;;;;;;;;;;13.40;99.90;;;;;;10505231;28;19982;-65
2021/05/15 13:24:32;;;;;;;;;;;14.40;99.90;;;;;;10508142;28;19974;-65
2021/05/15 13:29:34;;;;;;;;;;;15.20;99.90;;;;;;10491671;28;19930;-65
2021/05/15 13:34:36;;;;;;;;;;;15.80;99.90;;;;;;10470548;28;20059;-64
2021/05/15 13:39:38;;;;;;;;;;;16.40;99.90;;;;;;10513894;28;19931;-65
2021/05/15 13:44:39;;;;;;;;;;;16.50;99.90;;;;;;10493028;28;20022;-65
2021/05/15 13:49:41;;;;;;;;;;;16.90;99.90;;;;;;10491189;28;20432;-65
2021/05/15 13:54:43;;;;;;;;;;;17.20;99.90;;;;;;10505278;28;20407;-65
2021/05/15 13:59:45;;;;;;;;;;;17.20;99.90;;;;;;10485661;28;19932;-65
2021/05/15 14:04:47;;;;;;;;;;;17.00;99.90;;;;;;10497363;28;20003;-65
2021/05/15 14:09:49;;;;;;;;;;;16.80;99.50;;;;;;10499181;28;20058;-65
2021/05/15 14:14:50;;;;;;;;;;;16.40;98.80;;;;;;10484795;28;19924;-65
2021/05/15 14:19:52;;;;;;;;;;;16.30;98.60;;;;;;10504511;28;20356;-65
2021/05/15 14:24:55;;;;;;;;;;;16.30;99.90;;;;;;10485439;28;19928;-65
2021/05/15 14:29:57;;;;;;;;;;;16.30;95.00;;;;;;10503679;28;19928;-65
2021/05/15 14:34:59;;;;;;;;;;;16.20;94.40;;;;;;10506346;28;20002;-65
2021/05/15 14:40:02;;;;;;;;;;;16.30;94.10;;;;;;10519232;28;19955;-65
2021/05/15 14:45:04;;;;;;;;;;;16.20;93.30;;;;;;10509727;28;19928;-64
2021/05/15 14:50:06;;;;;;;;;;;16.10;91.60;;;;;;10492289;28;20366;-65
2021/05/15 14:55:08;;;;;;;;;;;15.80;92.60;;;;;;10516710;28;20013;-64
2021/05/15 15:00:11;;;;;;;;;;;15.80;90.80;;;;;;10496648;28;19924;-65
2021/05/15 15:05:13;;;;;;;;;;;15.70;91.90;;;;;;10493411;28;20015;-65
2021/05/15 15:10:15;;;;;;;;;;;15.50;91.60;;;;;;10487608;28;19925;-65
2021/05/15 15:15:17;;;;;;;;;;;15.80;91.50;;;;;;10496411;28;19928;-65
2021/05/15 15:20:19;;;;;;;;;;;15.60;91.00;;;;;;10505371;28;20432;-64
2021/05/15 15:25:20;;;;;;;;;;;15.40;91.90;;;;;;10479347;28;19972;-64
2021/05/15 15:30:22;;;;;;;;;;;15.30;92.70;;;;;;10505064;28;19929;-63
2021/05/15 15:35:24;;;;;;;;;;;15.20;92.70;;;;;;10524930;28;19957;-64
2021/05/15 15:40:26;;;;;;;;;;;15.20;92.80;;;;;;10523755;28;19982;-64
2021/05/15 15:45:28;;;;;;;;;;;15.30;93.30;;;;;;10494978;28;19929;-64
2021/05/15 15:50:30;;;;;;;;;;;15.20;93.40;;;;;;10477650;28;20030;-64
2021/05/15 15:55:32;;;;;;;;;;;15.10;93.70;;;;;;10493499;28;19967;-64
2021/05/15 16:00:35;;;;;;;;;;;14.80;93.70;;;;;;10528905;28;20749;-63
2021/05/15 16:05:37;;;;;;;;;;;14.90;95.00;;;;;;10499370;28;19943;-63
2021/05/15 16:10:39;;;;;;;;;;;15.20;95.10;;;;;;10474681;28;19928;-63
2021/05/15 16:15:41;;;;;;;;;;;15.70;95.40;;;;;;10509082;28;19971;-64
2021/05/15 16:20:43;;;;;;;;;;;15.80;95.00;;;;;;10489392;28;19950;-63
2021/05/15 16:25:45;;;;;;;;;;;15.50;93.80;;;;;;10477508;28;19932;-63
2021/05/15 16:30:47;;;;;;;;;;;15.40;95.10;;;;;;10488104;28;20295;-63
2021/05/15 16:35:50;;;;;;;;;;;15.50;94.50;;;;;;10496996;28;19924;-64
2021/05/15 16:40:52;;;;;;;;;;;15.30;95.30;;;;;;10497040;28;19959;-64
2021/05/15 16:45:55;;;;;;;;;;;15.30;94.80;;;;;;10489892;28;19971;-64
2021/05/15 16:50:57;;;;;;;;;;;15.10;94.80;;;;;;10528176;28;19975;-63
2021/05/15 16:55:59;;;;;;;;;;;15.00;96.70;;;;;;10481499;28;20154;-64
2021/05/15 17:01:02;;;;;;;;;;;14.80;96.60;;;;;;10495838;28;20015;-64
2021/05/15 17:06:05;;;;;;;;;;;14.50;98.70;;;;;;10492024;28;20288;-64
2021/05/15 17:11:07;;;;;;;;;;;14.50;99.90;;;;;;10488251;28;19924;-64
2021/05/15 17:16:08;;;;;;;;;;;14.70;99.90;;;;;;10486338;28;20016;-64
2021/05/15 17:21:12;;;;;;;;;;;14.40;99.90;;;;;;10485130;28;20019;-65
2021/05/15 17:26:14;;;;;;;;;;;14.10;99.90;;;;;;10493518;28;19931;-64
2021/05/15 17:31:16;;;;;;;;;;;13.90;99.90;;;;;;10483288;28;20032;-64
2021/05/15 17:36:19;;;;;;;;;;;14.20;99.90;;;;;;10483095;28;19928;-64
2021/05/15 17:41:21;;;;;;;;;;;14.00;99.90;;;;;;10482082;28;20122;-64
2021/05/15 17:46:23;;;;;;;;;;;13.60;99.90;;;;;;10478982;28;19960;-64
2021/05/15 17:51:24;;;;;;;;;;;13.30;99.90;;;;;;10482969;28;20422;-64
2021/05/15 17:56:26;;;;;;;;;;;13.10;99.90;;;;;;10501144;28;20400;-64
2021/05/15 18:01:28;;;;;;;;;;;13.00;99.90;;;;;;10504560;28;19928;-64
2021/05/15 18:06:30;;;;;;;;;;;12.90;99.90;;;;;;10513973;28;20270;-64
2021/05/15 18:11:32;;;;;;;;;;;12.70;99.90;;;;;;10478169;28;20019;-64
2021/05/15 18:16:34;;;;;;;;;;;12.90;99.90;;;;;;10508922;28;20078;-64
2021/05/15 18:21:36;;;;;;;;;;;12.90;99.90;;;;;;10524330;28;19928;-64
2021/05/15 18:26:38;;;;;;;;;;;12.80;99.90;;;;;;10518919;28;19928;-64
2021/05/15 18:31:40;;;;;;;;;;;12.70;99.90;;;;;;10528103;28;20566;-64
2021/05/15 18:36:43;;;;;;;;;;;12.60;99.90;;;;;;10499452;28;20269;-64
2021/05/15 18:41:46;;;;;;;;;;;12.50;99.90;;;;;;10508372;28;19983;-64
2021/05/15 18:46:48;;;;;;;;;;;12.40;99.90;;;;;;10471723;28;20003;-63
2021/05/15 18:51:50;;;;;;;;;;;12.40;99.90;;;;;;10495990;28;20391;-64
2021/05/15 18:56:52;;;;;;;;;;;12.40;99.90;;;;;;10523734;28;19989;-63
2021/05/15 19:01:55;;;;;;;;;;;12.40;99.90;;;;;;10518258;28;19924;-64
2021/05/15 19:06:57;;;;;;;;;;;12.20;99.90;;;;;;10493077;28;19979;-64
2021/05/15 19:11:59;;;;;;;;;;;12.10;99.90;;;;;;10493914;28;19955;-63
2021/05/15 19:17:01;;;;;;;;;;;12.00;99.90;;;;;;10510088;28;19976;-64
2021/05/15 19:22:03;;;;;;;;;;;11.80;99.90;;;;;;10516495;28;19928;-64
2021/05/15 19:27:05;;;;;;;;;;;11.80;99.90;;;;;;10512719;28;20044;-64
2021/05/15 19:32:08;;;;;;;;;;;11.80;99.90;;;;;;10522089;28;19931;-64
2021/05/15 19:37:10;;;;;;;;;;;11.80;99.90;;;;;;10515606;28;20376;-64
2021/05/15 19:42:12;;;;;;;;;;;11.80;99.90;;;;;;10529711;28;19924;-63
2021/05/15 19:47:16;;;;;;;;;;;11.80;99.90;;;;;;10530887;28;19931;-64
2021/05/15 19:52:19;;;;;;;;;;;11.80;99.90;;;;;;10525749;28;19928;-64
2021/05/15 19:57:20;;;;;;;;;;;11.80;99.90;;;;;;10487752;28;19943;-64
2021/05/15 20:02:22;;;;;;;;;;;11.80;99.90;;;;;;10490263;28;19931;-64
2021/05/15 20:07:24;;;;;;;;;;;11.70;99.90;;;;;;10514719;28;20296;-72
2021/05/15 20:12:27;;;;;;;;;;;11.70;99.90;;;;;;10505474;28;20031;-73
2021/05/15 20:17:29;;;;;;;;;;;11.70;99.90;;;;;;10486756;28;20408;-73
2021/05/15 20:22:31;;;;;;;;;;;11.60;99.90;;;;;;10486450;28;20518;-73
2021/05/15 20:27:34;;;;;;;;;;;11.50;99.90;;;;;;10506157;28;19928;-72
2021/05/15 20:32:36;;;;;;;;;;;11.20;99.90;;;;;;10495850;28;20001;-73
2021/05/15 20:37:39;;;;;;;;;;;11.20;99.90;;;;;;10504886;28;20478;-72
2021/05/15 20:42:41;;;;;;;;;;;11.10;99.90;;;;;;10551393;27;19983;-73
2021/05/15 20:47:43;;;;;;;;;;;10.90;99.90;;;;;;10525685;28;20315;-72
2021/05/15 20:52:45;;;;;;;;;;;10.70;99.90;;;;;;10518494;28;19928;-73
2021/05/15 20:57:47;;;;;;;;;;;10.60;99.90;;;;;;10495440;28;19970;-72
2021/05/15 21:02:50;;;;;;;;;;;10.40;99.90;;;;;;10524029;28;19924;-73
2021/05/15 21:07:52;;;;;;;;;;;10.30;99.90;;;;;;10525125;28;20287;-72
2021/05/15 21:12:53;;;;;;;;;;;10.10;99.90;;;;;;10505881;28;19931;-71
2021/05/15 21:17:57;;;;;;;;;;;10.10;99.90;;;;;;10506584;28;19928;-72
2021/05/15 21:22:58;;;;;;;;;;;10.00;99.90;;;;;;10495235;28;19932;-73
2021/05/15 21:28:08;;;;;;;;;;;10.00;99.90;;;;;;10508421;28;19939;-72
2021/05/15 21:33:10;;;;;;;;;;;10.00;99.90;;;;;;10500539;28;19982;-72
2021/05/15 21:38:11;;;;;;;;;;;9.90;99.90;;;;;;10502454;28;20027;-73
2021/05/15 21:43:13;;;;;;;;;;;9.90;99.90;;;;;;10487221;28;20464;-73
2021/05/15 21:48:15;;;;;;;;;;;9.90;99.90;;;;;;10522477;28;20022;-73
2021/05/15 21:53:17;;;;;;;;;;;9.80;99.90;;;;;;10494892;28;19924;-73
2021/05/15 21:58:19;;;;;;;;;;;9.70;99.90;;;;;;10504904;28;20007;-73
2021/05/15 22:03:22;;;;;;;;;;;9.70;99.90;;;;;;10511270;28;19975;-73
2021/05/15 22:08:25;;;;;;;;;;;9.60;99.90;;;;;;10516399;28;20410;-73
2021/05/15 22:13:27;;;;;;;;;;;9.70;99.90;;;;;;10510006;28;20392;-73
2021/05/15 22:18:29;;;;;;;;;;;9.90;99.90;;;;;;10489007;28;19931;-72
2021/05/15 22:23:32;;;;;;;;;;;9.90;99.90;;;;;;10522304;28;19975;-73
2021/05/15 22:28:34;;;;;;;;;;;10.00;99.90;;;;;;10488637;28;20011;-73
2021/05/15 22:33:36;;;;;;;;;;;10.10;99.90;;;;;;10490655;28;19928;-73
2021/05/15 22:38:38;;;;;;;;;;;10.10;99.90;;;;;;10507746;28;20471;-73
2021/05/15 22:43:40;;;;;;;;;;;10.10;99.90;;;;;;10485950;28;20022;-73
2021/05/15 22:48:42;;;;;;;;;;;10.00;99.90;;;;;;10524291;28;20003;-73
2021/05/15 22:53:55;;;;;;;;;;;9.90;99.90;;;;;;10493101;28;19931;-73
2021/05/15 22:59:00;;;;;;;;;;;9.80;99.90;;;;;;10519028;28;20372;-73
2021/05/15 23:04:02;;;;;;;;;;;9.70;99.90;;;;;;10527007;28;19928;-72
2021/05/15 23:09:04;;;;;;;;;;;9.70;99.90;;;;;;10502006;28;20015;-73
2021/05/15 23:14:06;;;;;;;;;;;9.60;99.90;;;;;;10518642;28;20380;-72
2021/05/15 23:19:09;;;;;;;;;;;9.50;99.90;;;;;;10521903;28;20031;-73
2021/05/15 23:24:11;;;;;;;;;;;9.50;99.90;;;;;;10508752;28;19979;-73
2021/05/15 23:29:13;;;;;;;;;;;9.30;99.90;;;;;;10506947;28;20015;-72
2021/05/15 23:34:15;;;;;;;;;;;9.20;99.90;;;;;;10501176;28;19924;-72
2021/05/15 23:39:17;;;;;;;;;;;9.10;99.90;;;;;;10508314;28;20296;-72
2021/05/15 23:44:19;;;;;;;;;;;9.10;99.90;;;;;;10507288;28;19930;-72
2021/05/15 23:49:21;;;;;;;;;;;9.00;99.90;;;;;;10501108;28;19933;-72
2021/05/15 23:54:22;;;;;;;;;;;9.00;99.90;;;;;;10507820;28;20303;-72
2021/05/15 23:59:24;;;;;;;;;;;9.00;99.90;;;;;;10516044;28;20399;-72
